sensor_id;sensor_type;location;lat;lon;timestamp;pressure;altitude;pressure_sealevel;temperature;humidity
62333;BME280;48624;49.812;8.562;2024-01-15T00:00:14;99625.78;;;-2.96;96.56
62333;BME280;48624;49.812;8.562;2024-01-15T00:02:40;99611.31;;;-3.05;96.88
62333;BME280;48624;49.812;8.562;2024-01-15T00:05:05;99603.41;;;-3.00;96.57
62333;BME280;48624;49.812;8.562;2024-01-15T00:07:31;99599.69;;;-3.23;96.42
62333;BME280;48624;49.812;8.562;2024-01-15T00:09:56;99603.88;;;-3.19;96.66
62333;BME280;48624;49.812;8.562;2024-01-15T00:12:21;99606.13;;;-3.05;97.19
62333;BME280;48624;49.812;8.562;2024-01-15T00:14:46;99610.47;;;-3.05;97.42
62333;BME280;48624;49.812;8.562;2024-01-15T00:17:13;99613.09;;;-3.07;97.98
62333;BME280;48624;49.812;8.562;2024-01-15T00:19:38;99619.09;;;-3.05;98.65
62333;BME280;48624;49.812;8.562;2024-01-15T00:22:04;99606.00;;;-3.00;98.88
62333;BME280;48624;49.812;8.562;2024-01-15T00:24:29;99603.75;;;-3.14;99.33
62333;BME280;48624;49.812;8.562;2024-01-15T00:26:55;99590.28;;;-2.93;98.69
62333;BME280;48624;49.812;8.562;2024-01-15T00:29:20;99589.50;;;-2.96;99.40
62333;BME280;48624;49.812;8.562;2024-01-15T00:31:46;99576.94;;;-3.12;99.68
62333;BME280;48624;49.812;8.562;2024-01-15T00:34:11;99577.38;;;-3.29;100.00
62333;BME280;48624;49.812;8.562;2024-01-15T00:36:38;99581.97;;;-3.05;100.00
62333;BME280;48624;49.812;8.562;2024-01-15T00:39:03;99575.63;;;-3.28;100.00
62333;BME280;48624;49.812;8.562;2024-01-15T00:41:30;99584.84;;;-3.18;100.00
62333;BME280;48624;49.812;8.562;2024-01-15T00:43:56;99589.06;;;-3.12;100.00
62333;BME280;48624;49.812;8.562;2024-01-15T00:46:21;99579.53;;;-3.12;100.00
62333;BME280;48624;49.812;8.562;2024-01-15T00:48:46;99572.44;;;-3.05;100.00
62333;BME280;48624;49.812;8.562;2024-01-15T00:51:12;99563.75;;;-3.02;99.98
62333;BME280;48624;49.812;8.562;2024-01-15T00:53:37;99563.41;;;-3.23;100.00
62333;BME280;48624;49.812;8.562;2024-01-15T00:56:03;99573.88;;;-2.93;99.50
62333;BME280;48624;49.812;8.562;2024-01-15T00:58:28;99583.91;;;-3.14;99.80
62333;BME280;48624;49.812;8.562;2024-01-15T01:00:53;99577.47;;;-2.99;99.01
62333;BME280;48624;49.812;8.562;2024-01-15T01:03:19;99569.06;;;-3.09;98.79
62333;BME280;48624;49.812;8.562;2024-01-15T01:05:44;99568.94;;;-3.04;98.60
62333;BME280;48624;49.812;8.562;2024-01-15T01:08:10;99582.41;;;-2.89;97.78
62333;BME280;48624;49.812;8.562;2024-01-15T01:10:35;99562.03;;;-3.03;97.79
62333;BME280;48624;49.812;8.562;2024-01-15T01:13:00;99564.03;;;-2.80;97.70
62333;BME280;48624;49.812;8.562;2024-01-15T01:15:26;99565.94;;;-2.87;97.48
62333;BME280;48624;49.812;8.562;2024-01-15T01:17:52;99555.75;;;-2.95;97.18
62333;BME280;48624;49.812;8.562;2024-01-15T01:20:17;99559.41;;;-3.02;97.56
62333;BME280;48624;49.812;8.562;2024-01-15T01:22:42;99553.75;;;-2.83;96.23
62333;BME280;48624;49.812;8.562;2024-01-15T01:25:08;99555.97;;;-2.69;95.32
62333;BME280;48624;49.812;8.562;2024-01-15T01:27:35;99547.84;;;-2.90;95.13
62333;BME280;48624;49.812;8.562;2024-01-15T01:30:00;99542.28;;;-2.76;94.98
62333;BME280;48624;49.812;8.562;2024-01-15T01:32:25;99544.09;;;-2.78;95.43
62333;BME280;48624;49.812;8.562;2024-01-15T01:34:51;99549.81;;;-2.98;95.85
62333;BME280;48624;49.812;8.562;2024-01-15T01:37:16;99550.53;;;-2.93;95.80
62333;BME280;48624;49.812;8.562;2024-01-15T01:39:42;99550.03;;;-2.74;95.65
62333;BME280;48624;49.812;8.562;2024-01-15T01:42:07;99547.41;;;-2.73;94.72
62333;BME280;48624;49.812;8.562;2024-01-15T01:44:33;99541.72;;;-2.86;94.96
62333;BME280;48624;49.812;8.562;2024-01-15T01:46:59;99547.06;;;-2.92;95.64
62333;BME280;48624;49.812;8.562;2024-01-15T01:49:26;99557.81;;;-2.74;95.39
62333;BME280;48624;49.812;8.562;2024-01-15T01:51:52;99556.66;;;-2.96;96.31
62333;BME280;48624;49.812;8.562;2024-01-15T01:54:18;99553.75;;;-2.83;95.55
62333;BME280;48624;49.812;8.562;2024-01-15T01:56:45;99546.28;;;-2.64;94.32
62333;BME280;48624;49.812;8.562;2024-01-15T01:59:14;99565.06;;;-2.87;94.98
62333;BME280;48624;49.812;8.562;2024-01-15T02:01:40;99566.22;;;-2.65;94.67
62333;BME280;48624;49.812;8.562;2024-01-15T02:04:06;99562.69;;;-2.95;94.73
62333;BME280;48624;49.812;8.562;2024-01-15T02:06:33;99555.63;;;-2.58;94.61
62333;BME280;48624;49.812;8.562;2024-01-15T02:08:58;99562.47;;;-2.87;94.99
62333;BME280;48624;49.812;8.562;2024-01-15T02:11:24;99561.34;;;-2.77;95.61
62333;BME280;48624;49.812;8.562;2024-01-15T02:13:49;99555.59;;;-2.57;95.03
62333;BME280;48624;49.812;8.562;2024-01-15T02:16:14;99552.84;;;-2.82;95.71
62333;BME280;48624;49.812;8.562;2024-01-15T02:18:44;99541.59;;;-2.81;95.34
62333;BME280;48624;49.812;8.562;2024-01-15T02:21:09;99542.28;;;-2.76;95.43
62333;BME280;48624;49.812;8.562;2024-01-15T02:23:36;99539.78;;;-2.79;95.55
62333;BME280;48624;49.812;8.562;2024-01-15T02:26:02;99537.06;;;-2.74;95.29
62333;BME280;48624;49.812;8.562;2024-01-15T02:28:27;99533.38;;;-2.97;95.01
62333;BME280;48624;49.812;8.562;2024-01-15T02:30:53;99534.47;;;-2.74;95.25
62333;BME280;48624;49.812;8.562;2024-01-15T02:33:18;99529.03;;;-2.97;95.45
62333;BME280;48624;49.812;8.562;2024-01-15T02:35:43;99531.13;;;-2.78;95.46
62333;BME280;48624;49.812;8.562;2024-01-15T02:38:09;99531.13;;;-2.78;94.67
62333;BME280;48624;49.812;8.562;2024-01-15T02:40:35;99537.88;;;-2.72;95.38
62333;BME280;48624;49.812;8.562;2024-01-15T02:43:00;99534.44;;;-2.73;95.98
62333;BME280;48624;49.812;8.562;2024-01-15T02:45:26;99527.69;;;-2.79;95.08
62333;BME280;48624;49.812;8.562;2024-01-15T02:47:52;99530.94;;;-2.70;94.90
62333;BME280;48624;49.812;8.562;2024-01-15T02:50:17;99519.78;;;-2.74;94.66
62333;BME280;48624;49.812;8.562;2024-01-15T02:52:42;99519.94;;;-2.80;95.55
62333;BME280;48624;49.812;8.562;2024-01-15T02:55:08;99508.31;;;-2.67;95.10
62333;BME280;48624;49.812;8.562;2024-01-15T02:57:34;99516.94;;;-2.65;95.30
62333;BME280;48624;49.812;8.562;2024-01-15T02:59:59;99518.50;;;-2.90;95.41
62333;BME280;48624;49.812;8.562;2024-01-15T03:02:24;99521.38;;;-2.70;95.56
62333;BME280;48624;49.812;8.562;2024-01-15T03:04:50;99526.16;;;-2.54;95.38
62333;BME280;48624;49.812;8.562;2024-01-15T03:07:15;99520.44;;;-2.66;95.67
62333;BME280;48624;49.812;8.562;2024-01-15T03:09:41;99511.66;;;-2.61;95.69
62333;BME280;48624;49.812;8.562;2024-01-15T03:12:08;99510.25;;;-2.73;95.76
62333;BME280;48624;49.812;8.562;2024-01-15T03:14:33;99507.00;;;-2.50;95.72
62333;BME280;48624;49.812;8.562;2024-01-15T03:16:58;99508.66;;;-2.77;96.15
62333;BME280;48624;49.812;8.562;2024-01-15T03:19:27;99519.56;;;-2.36;94.86
62333;BME280;48624;49.812;8.562;2024-01-15T03:21:52;99513.13;;;-2.22;93.37
62333;BME280;48624;49.812;8.562;2024-01-15T03:24:17;99523.09;;;-2.39;94.01
62333;BME280;48624;49.812;8.562;2024-01-15T03:26:43;99514.63;;;-2.44;94.21
62333;BME280;48624;49.812;8.562;2024-01-15T03:29:08;99528.59;;;-2.19;93.25
62333;BME280;48624;49.812;8.562;2024-01-15T03:31:33;99527.88;;;-2.25;93.38
62333;BME280;48624;49.812;8.562;2024-01-15T03:33:58;99524.00;;;-2.40;94.53
62333;BME280;48624;49.812;8.562;2024-01-15T03:36:24;99528.41;;;-2.43;94.88
62333;BME280;48624;49.812;8.562;2024-01-15T03:38:49;99517.41;;;-2.52;95.42
62333;BME280;48624;49.812;8.562;2024-01-15T03:41:14;99518.00;;;-2.42;94.88
62333;BME280;48624;49.812;8.562;2024-01-15T03:43:40;99517.22;;;-2.44;95.57
62333;BME280;48624;49.812;8.562;2024-01-15T03:46:05;99512.41;;;-2.58;95.07
62333;BME280;48624;49.812;8.562;2024-01-15T03:48:31;99512.19;;;-2.50;95.66
62333;BME280;48624;49.812;8.562;2024-01-15T03:50:57;99501.63;;;-2.44;95.62
62333;BME280;48624;49.812;8.562;2024-01-15T03:53:22;99499.31;;;-2.53;95.66
62333;BME280;48624;49.812;8.562;2024-01-15T03:55:48;99503.06;;;-2.33;94.81
62333;BME280;48624;49.812;8.562;2024-01-15T03:58:14;99496.88;;;-2.29;95.17
62333;BME280;48624;49.812;8.562;2024-01-15T04:00:40;99501.72;;;-2.47;95.38
62333;BME280;48624;49.812;8.562;2024-01-15T04:03:05;99495.97;;;-2.28;94.75
62333;BME280;48624;49.812;8.562;2024-01-15T04:05:30;99490.84;;;-2.30;94.63
62333;BME280;48624;49.812;8.562;2024-01-15T04:07:56;99489.22;;;-2.34;93.36
62333;BME280;48624;49.812;8.562;2024-01-15T04:10:21;99485.72;;;-2.61;94.70
62333;BME280;48624;49.812;8.562;2024-01-15T04:12:46;99487.41;;;-2.30;95.09
62333;BME280;48624;49.812;8.562;2024-01-15T04:15:12;99476.66;;;-2.48;95.07
62333;BME280;48624;49.812;8.562;2024-01-15T04:17:38;99470.81;;;-2.55;95.17
62333;BME280;48624;49.812;8.562;2024-01-15T04:20:03;99484.09;;;-2.35;95.59
62333;BME280;48624;49.812;8.562;2024-01-15T04:22:29;99475.06;;;-2.52;95.54
62333;BME280;48624;49.812;8.562;2024-01-15T04:24:54;99480.53;;;-2.33;95.74
62333;BME280;48624;49.812;8.562;2024-01-15T04:27:19;99479.19;;;-2.45;96.19
62333;BME280;48624;49.812;8.562;2024-01-15T04:29:44;99472.63;;;-2.57;95.90
62333;BME280;48624;49.812;8.562;2024-01-15T04:32:10;99480.78;;;-2.41;95.62
62333;BME280;48624;49.812;8.562;2024-01-15T04:34:35;99484.81;;;-2.30;95.10
62333;BME280;48624;49.812;8.562;2024-01-15T04:37:00;99474.97;;;-2.49;95.85
62333;BME280;48624;49.812;8.562;2024-01-15T04:39:26;99467.81;;;-2.41;95.35
62333;BME280;48624;49.812;8.562;2024-01-15T04:41:51;99466.13;;;-2.42;96.22
62333;BME280;48624;49.812;8.562;2024-01-15T04:44:16;99473.28;;;-2.50;95.39
62333;BME280;48624;49.812;8.562;2024-01-15T04:46:42;99459.50;;;-2.52;95.83
62333;BME280;48624;49.812;8.562;2024-01-15T04:49:09;99465.94;;;-2.35;95.48
62333;BME280;48624;49.812;8.562;2024-01-15T04:51:34;99465.94;;;-2.35;95.16
62333;BME280;48624;49.812;8.562;2024-01-15T04:53:59;99470.38;;;-2.39;95.44
62333;BME280;48624;49.812;8.562;2024-01-15T04:56:25;99475.34;;;-2.33;95.00
62333;BME280;48624;49.812;8.562;2024-01-15T04:58:50;99468.41;;;-2.31;95.83
62333;BME280;48624;49.812;8.562;2024-01-15T05:01:16;99461.88;;;-2.16;94.87
62333;BME280;48624;49.812;8.562;2024-01-15T05:03:42;99459.72;;;-2.30;95.16
62333;BME280;48624;49.812;8.562;2024-01-15T05:06:07;99458.25;;;-2.39;94.83
62333;BME280;48624;49.812;8.562;2024-01-15T05:08:32;99451.66;;;-2.20;94.63
62333;BME280;48624;49.812;8.562;2024-01-15T05:10:57;99462.16;;;-2.25;94.73
62333;BME280;48624;49.812;8.562;2024-01-15T05:13:23;99452.59;;;-2.23;94.89
62333;BME280;48624;49.812;8.562;2024-01-15T05:15:48;99450.31;;;-2.34;95.15
62333;BME280;48624;49.812;8.562;2024-01-15T05:18:13;99455.47;;;-2.32;95.14
62333;BME280;48624;49.812;8.562;2024-01-15T05:20:39;99455.16;;;-2.21;94.66
62333;BME280;48624;49.812;8.562;2024-01-15T05:23:04;99451.34;;;-2.11;95.04
62333;BME280;48624;49.812;8.562;2024-01-15T05:25:29;99449.38;;;-2.31;95.23
62333;BME280;48624;49.812;8.562;2024-01-15T05:27:54;99441.28;;;-2.20;95.61
62333;BME280;48624;49.812;8.562;2024-01-15T05:30:20;99447.44;;;-2.25;95.74
62333;BME280;48624;49.812;8.562;2024-01-15T05:32:45;99444.00;;;-2.25;95.84
62333;BME280;48624;49.812;8.562;2024-01-15T05:35:10;99457.16;;;-2.31;96.24
62333;BME280;48624;49.812;8.562;2024-01-15T05:37:35;99441.41;;;-2.25;96.09
62333;BME280;48624;49.812;8.562;2024-01-15T05:40:01;99449.69;;;-2.14;96.31
62333;BME280;48624;49.812;8.562;2024-01-15T05:42:26;99442.94;;;-2.18;97.67
62333;BME280;48624;49.812;8.562;2024-01-15T05:44:51;99450.00;;;-2.23;98.62
62333;BME280;48624;49.812;8.562;2024-01-15T05:47:17;99447.56;;;-2.29;99.95
62333;BME280;48624;49.812;8.562;2024-01-15T05:49:42;99445.84;;;-2.29;100.00
62333;BME280;48624;49.812;8.562;2024-01-15T05:52:08;99442.53;;;-2.34;100.00
62333;BME280;48624;49.812;8.562;2024-01-15T05:54:33;99440.94;;;-2.38;100.00
62333;BME280;48624;49.812;8.562;2024-01-15T05:56:58;99432.91;;;-2.30;100.00
62333;BME280;48624;49.812;8.562;2024-01-15T05:59:24;99425.91;;;-2.28;100.00
62333;BME280;48624;49.812;8.562;2024-01-15T06:01:49;99434.41;;;-2.23;99.85
62333;BME280;48624;49.812;8.562;2024-01-15T06:04:14;99425.59;;;-2.17;99.91
62333;BME280;48624;49.812;8.562;2024-01-15T06:06:39;99437.47;;;-2.10;98.14
62333;BME280;48624;49.812;8.562;2024-01-15T06:09:05;99444.09;;;-2.28;98.77
62333;BME280;48624;49.812;8.562;2024-01-15T06:11:34;99433.13;;;-2.10;98.02
62333;BME280;48624;49.812;8.562;2024-01-15T06:13:59;99423.09;;;-2.20;97.75
62333;BME280;48624;49.812;8.562;2024-01-15T06:16:26;99419.03;;;-2.29;97.91
62333;BME280;48624;49.812;8.562;2024-01-15T06:18:51;99421.16;;;-2.14;97.18
62333;BME280;48624;49.812;8.562;2024-01-15T06:21:16;99421.56;;;-1.99;96.82
62333;BME280;48624;49.812;8.562;2024-01-15T06:23:42;99415.66;;;-2.31;96.90
62333;BME280;48624;49.812;8.562;2024-01-15T06:26:07;99421.19;;;-2.15;96.71
62333;BME280;48624;49.812;8.562;2024-01-15T06:28:33;99416.69;;;-2.08;96.85
62333;BME280;48624;49.812;8.562;2024-01-15T06:30:58;99418.81;;;-2.21;97.36
62333;BME280;48624;49.812;8.562;2024-01-15T06:33:24;99417.50;;;-2.08;97.23
62333;BME280;48624;49.812;8.562;2024-01-15T06:35:50;99416.28;;;-1.96;97.37
62333;BME280;48624;49.812;8.562;2024-01-15T06:38:15;99418.13;;;-2.00;97.29
62333;BME280;48624;49.812;8.562;2024-01-15T06:40:41;99420.91;;;-2.06;97.07
62333;BME280;48624;49.812;8.562;2024-01-15T06:43:13;99426.69;;;-1.98;97.03
62333;BME280;48624;49.812;8.562;2024-01-15T06:45:38;99413.19;;;-2.07;96.90
62333;BME280;48624;49.812;8.562;2024-01-15T06:48:04;99416.44;;;-1.75;96.06
62333;BME280;48624;49.812;8.562;2024-01-15T06:50:30;99411.13;;;-1.98;96.60
62333;BME280;48624;49.812;8.562;2024-01-15T06:52:55;99411.38;;;-1.78;96.28
62333;BME280;48624;49.812;8.562;2024-01-15T06:55:20;99409.59;;;-1.78;96.12
62333;BME280;48624;49.812;8.562;2024-01-15T06:57:46;99404.94;;;-1.93;97.21
62333;BME280;48624;49.812;8.562;2024-01-15T07:00:11;99411.13;;;-1.98;96.68
62333;BME280;48624;49.812;8.562;2024-01-15T07:02:37;99405.72;;;-1.91;96.84
62333;BME280;48624;49.812;8.562;2024-01-15T07:05:02;99399.31;;;-2.06;96.72
62333;BME280;48624;49.812;8.562;2024-01-15T07:07:30;99411.59;;;-1.86;96.20
62333;BME280;48624;49.812;8.562;2024-01-15T07:09:55;99417.41;;;-2.05;96.84
62333;BME280;48624;49.812;8.562;2024-01-15T07:12:20;99418.53;;;-2.12;97.26
62333;BME280;48624;49.812;8.562;2024-01-15T07:14:46;99415.94;;;-2.12;97.19
62333;BME280;48624;49.812;8.562;2024-01-15T07:17:11;99416.81;;;-2.13;97.77
62333;BME280;48624;49.812;8.562;2024-01-15T07:19:36;99416.88;;;-2.15;98.34
62333;BME280;48624;49.812;8.562;2024-01-15T07:22:02;99420.00;;;-2.05;98.12
62333;BME280;48624;49.812;8.562;2024-01-15T07:24:27;99423.34;;;-2.01;98.79
62333;BME280;48624;49.812;8.562;2024-01-15T07:26:52;99425.16;;;-2.03;98.12
62333;BME280;48624;49.812;8.562;2024-01-15T07:29:18;99420.44;;;-1.92;98.14
62333;BME280;48624;49.812;8.562;2024-01-15T07:31:52;99422.84;;;-1.86;98.27
62333;BME280;48624;49.812;8.562;2024-01-15T07:34:18;99413.38;;;-1.87;98.23
62333;BME280;48624;49.812;8.562;2024-01-15T07:36:44;99414.31;;;-1.89;98.42
62333;BME280;48624;49.812;8.562;2024-01-15T07:39:09;99417.56;;;-2.10;99.24
62333;BME280;48624;49.812;8.562;2024-01-15T07:41:35;99413.66;;;-1.96;98.51
62333;BME280;48624;49.812;8.562;2024-01-15T07:44:00;99410.50;;;-1.79;98.01
62333;BME280;48624;49.812;8.562;2024-01-15T07:46:26;99414.19;;;-1.86;98.75
62333;BME280;48624;49.812;8.562;2024-01-15T07:48:52;99423.53;;;-1.81;98.06
62333;BME280;48624;49.812;8.562;2024-01-15T07:51:21;99404.63;;;-1.84;98.43
62333;BME280;48624;49.812;8.562;2024-01-15T07:53:47;99415.47;;;-1.98;98.42
62333;BME280;48624;49.812;8.562;2024-01-15T07:56:12;99409.97;;;-1.89;98.71
62333;BME280;48624;49.812;8.562;2024-01-15T07:58:38;99413.44;;;-1.90;97.83
62333;BME280;48624;49.812;8.562;2024-01-15T08:01:03;99410.47;;;-1.77;98.07
62333;BME280;48624;49.812;8.562;2024-01-15T08:03:28;99411.09;;;-1.71;97.28
62333;BME280;48624;49.812;8.562;2024-01-15T08:05:54;99406.97;;;-1.76;97.57
62333;BME280;48624;49.812;8.562;2024-01-15T08:08:20;99396.09;;;-1.62;97.35
62333;BME280;48624;49.812;8.562;2024-01-15T08:10:46;99410.94;;;-1.66;97.00
62333;BME280;48624;49.812;8.562;2024-01-15T08:13:12;99406.84;;;-1.73;97.27
62333;BME280;48624;49.812;8.562;2024-01-15T08:15:37;99410.09;;;-1.67;97.38
62333;BME280;48624;49.812;8.562;2024-01-15T08:18:02;99405.38;;;-1.55;97.02
62333;BME280;48624;49.812;8.562;2024-01-15T08:20:28;99400.81;;;-1.74;97.18
62333;BME280;48624;49.812;8.562;2024-01-15T08:22:55;99393.97;;;-1.51;97.75
62333;BME280;48624;49.812;8.562;2024-01-15T08:25:20;99400.88;;;-1.50;97.71
62333;BME280;48624;49.812;8.562;2024-01-15T08:27:45;99397.38;;;-1.49;97.47
62333;BME280;48624;49.812;8.562;2024-01-15T08:30:11;99396.22;;;-1.40;96.66
62333;BME280;48624;49.812;8.562;2024-01-15T08:32:36;99391.59;;;-1.32;96.48
62333;BME280;48624;49.812;8.562;2024-01-15T08:35:06;99404.97;;;-1.19;96.12
62333;BME280;48624;49.812;8.562;2024-01-15T08:37:31;99401.97;;;-1.08;96.33
62333;BME280;48624;49.812;8.562;2024-01-15T08:39:56;99395.88;;;-1.07;95.72
62333;BME280;48624;49.812;8.562;2024-01-15T08:42:23;99394.22;;;-1.09;95.68
62333;BME280;48624;49.812;8.562;2024-01-15T08:44:49;99387.97;;;-1.04;96.01
62333;BME280;48624;49.812;8.562;2024-01-15T08:47:15;99380.63;;;-1.16;96.60
62333;BME280;48624;49.812;8.562;2024-01-15T08:49:41;99381.81;;;-1.25;96.79
62333;BME280;48624;49.812;8.562;2024-01-15T08:52:08;99368.47;;;-1.16;96.75
62333;BME280;48624;49.812;8.562;2024-01-15T08:54:34;99365.25;;;-0.99;96.44
62333;BME280;48624;49.812;8.562;2024-01-15T08:56:59;99364.81;;;-1.10;96.39
62333;BME280;48624;49.812;8.562;2024-01-15T08:59:24;99369.88;;;-1.07;96.18
62333;BME280;48624;49.812;8.562;2024-01-15T09:01:54;99368.56;;;-0.95;95.76
62333;BME280;48624;49.812;8.562;2024-01-15T09:04:22;99373.47;;;-0.87;95.91
62333;BME280;48624;49.812;8.562;2024-01-15T09:06:48;99377.34;;;-0.98;95.81
62333;BME280;48624;49.812;8.562;2024-01-15T09:09:13;99391.47;;;-0.81;95.47
62333;BME280;48624;49.812;8.562;2024-01-15T09:11:40;99402.38;;;-0.71;95.19
62333;BME280;48624;49.812;8.562;2024-01-15T09:14:05;99403.06;;;-0.67;95.11
62333;BME280;48624;49.812;8.562;2024-01-15T09:16:30;99402.97;;;-0.64;94.44
62333;BME280;48624;49.812;8.562;2024-01-15T09:18:56;99407.47;;;-0.46;94.00
62333;BME280;48624;49.812;8.562;2024-01-15T09:21:22;99401.47;;;-0.48;93.87
62333;BME280;48624;49.812;8.562;2024-01-15T09:23:49;99400.25;;;-0.39;93.72
62333;BME280;48624;49.812;8.562;2024-01-15T09:26:15;99405.59;;;-0.42;93.48
62333;BME280;48624;49.812;8.562;2024-01-15T09:28:40;99404.69;;;-0.19;93.64
62333;BME280;48624;49.812;8.562;2024-01-15T09:31:05;99416.97;;;0.00;92.69
62333;BME280;48624;49.812;8.562;2024-01-15T09:33:31;99417.38;;;-0.11;92.45
62333;BME280;48624;49.812;8.562;2024-01-15T09:35:56;99411.78;;;0.21;91.49
62333;BME280;48624;49.812;8.562;2024-01-15T09:38:21;99416.59;;;-0.35;91.67
62333;BME280;48624;49.812;8.562;2024-01-15T09:40:47;99411.31;;;-0.11;91.39
62333;BME280;48624;49.812;8.562;2024-01-15T09:43:14;99407.09;;;-0.36;92.56
62333;BME280;48624;49.812;8.562;2024-01-15T09:45:41;99408.25;;;-0.44;92.58
62333;BME280;48624;49.812;8.562;2024-01-15T09:48:07;99398.56;;;-0.18;91.73
62333;BME280;48624;49.812;8.562;2024-01-15T09:50:34;99401.03;;;-0.15;91.04
62333;BME280;48624;49.812;8.562;2024-01-15T09:52:59;99398.66;;;0.22;90.44
62333;BME280;48624;49.812;8.562;2024-01-15T09:55:25;99400.69;;;0.16;91.44
62333;BME280;48624;49.812;8.562;2024-01-15T09:57:52;99397.38;;;-0.10;91.15
62333;BME280;48624;49.812;8.562;2024-01-15T10:00:20;99391.63;;;0.04;91.41
62333;BME280;48624;49.812;8.562;2024-01-15T10:02:45;99381.88;;;0.09;90.20
62333;BME280;48624;49.812;8.562;2024-01-15T10:05:11;99380.59;;;-0.03;92.39
62333;BME280;48624;49.812;8.562;2024-01-15T10:07:46;99380.28;;;0.05;91.49
62333;BME280;48624;49.812;8.562;2024-01-15T10:10:12;99367.31;;;-0.18;91.26
62333;BME280;48624;49.812;8.562;2024-01-15T10:12:39;99365.25;;;-0.09;92.45
62333;BME280;48624;49.812;8.562;2024-01-15T10:15:04;99371.81;;;-0.21;92.52
62333;BME280;48624;49.812;8.562;2024-01-15T10:17:30;99371.50;;;-0.13;92.84
62333;BME280;48624;49.812;8.562;2024-01-15T10:19:56;99371.34;;;-0.10;92.53
62333;BME280;48624;49.812;8.562;2024-01-15T10:22:22;99364.25;;;-0.07;92.07
62333;BME280;48624;49.812;8.562;2024-01-15T10:24:48;99364.16;;;0.38;90.46
62333;BME280;48624;49.812;8.562;2024-01-15T10:27:13;99357.91;;;0.01;91.99
62333;BME280;48624;49.812;8.562;2024-01-15T10:29:41;99358.63;;;0.04;91.56
62333;BME280;48624;49.812;8.562;2024-01-15T10:32:09;99354.94;;;-0.12;92.17
62333;BME280;48624;49.812;8.562;2024-01-15T10:34:38;99355.31;;;-0.22;91.63
62333;BME280;48624;49.812;8.562;2024-01-15T10:37:07;99358.25;;;-0.30;92.01
62333;BME280;48624;49.812;8.562;2024-01-15T10:39:32;99363.78;;;0.06;91.20
62333;BME280;48624;49.812;8.562;2024-01-15T10:41:58;99361.41;;;-0.01;91.95
62333;BME280;48624;49.812;8.562;2024-01-15T10:44:25;99352.16;;;-0.08;91.49
62333;BME280;48624;49.812;8.562;2024-01-15T10:46:50;99345.06;;;-0.04;91.57
62333;BME280;48624;49.812;8.562;2024-01-15T10:49:16;99349.75;;;0.08;91.77
62333;BME280;48624;49.812;8.562;2024-01-15T10:51:44;99348.59;;;0.16;90.93
62333;BME280;48624;49.812;8.562;2024-01-15T10:54:10;99349.44;;;0.16;91.56
62333;BME280;48624;49.812;8.562;2024-01-15T10:56:37;99338.94;;;-0.03;92.24
62333;BME280;48624;49.812;8.562;2024-01-15T10:59:03;99332.38;;;0.09;91.20
62333;BME280;48624;49.812;8.562;2024-01-15T11:01:30;99331.41;;;-0.09;92.37
62333;BME280;48624;49.812;8.562;2024-01-15T11:03:56;99329.63;;;0.12;92.00
62333;BME280;48624;49.812;8.562;2024-01-15T11:06:25;99326.69;;;-0.01;91.71
62333;BME280;48624;49.812;8.562;2024-01-15T11:08:52;99314.00;;;0.12;91.79
62333;BME280;48624;49.812;8.562;2024-01-15T11:11:18;99331.28;;;0.15;91.85
62333;BME280;48624;49.812;8.562;2024-01-15T11:13:49;99330.09;;;0.22;92.00
62333;BME280;48624;49.812;8.562;2024-01-15T11:16:16;99322.00;;;0.49;90.91
62333;BME280;48624;49.812;8.562;2024-01-15T11:18:43;99325.56;;;0.46;90.09
62333;BME280;48624;49.812;8.562;2024-01-15T11:29:06;99297.78;;;0.66;88.25
62333;BME280;48624;49.812;8.562;2024-01-15T11:34:03;99299.09;;;0.55;88.34
62333;BME280;48624;49.812;8.562;2024-01-15T11:42:01;99299.59;;;0.83;87.60
62333;BME280;48624;49.812;8.562;2024-01-15T11:44:27;99299.66;;;1.01;87.99
62333;BME280;48624;49.812;8.562;2024-01-15T11:47:02;99307.69;;;0.96;86.89
62333;BME280;48624;49.812;8.562;2024-01-15T11:52:24;99307.06;;;1.10;86.34
62333;BME280;48624;49.812;8.562;2024-01-15T11:55:02;99300.78;;;0.95;86.97
62333;BME280;48624;49.812;8.562;2024-01-15T12:00:08;99302.06;;;1.05;87.41
62333;BME280;48624;49.812;8.562;2024-01-15T12:02:35;99302.28;;;1.37;86.37
62333;BME280;48624;49.812;8.562;2024-01-15T12:05:00;99292.38;;;1.27;87.05
62333;BME280;48624;49.812;8.562;2024-01-15T12:07:25;99280.50;;;1.38;86.22
62333;BME280;48624;49.812;8.562;2024-01-15T12:09:50;99287.31;;;1.41;86.25
62333;BME280;48624;49.812;8.562;2024-01-15T12:12:32;99285.03;;;1.35;86.07
62333;BME280;48624;49.812;8.562;2024-01-15T12:15:02;99286.81;;;1.70;84.79
62333;BME280;48624;49.812;8.562;2024-01-15T12:17:28;99287.56;;;1.54;83.85
62333;BME280;48624;49.812;8.562;2024-01-15T12:19:54;99288.66;;;1.68;84.42
62333;BME280;48624;49.812;8.562;2024-01-15T12:22:20;99294.41;;;1.74;83.27
62333;BME280;48624;49.812;8.562;2024-01-15T12:24:45;99302.16;;;1.58;84.02
62333;BME280;48624;49.812;8.562;2024-01-15T12:27:11;99304.78;;;1.58;84.41
62333;BME280;48624;49.812;8.562;2024-01-15T12:29:37;99295.88;;;1.62;84.01
62333;BME280;48624;49.812;8.562;2024-01-15T12:32:04;99296.84;;;1.60;85.06
62333;BME280;48624;49.812;8.562;2024-01-15T12:34:30;99296.63;;;1.82;82.30
62333;BME280;48624;49.812;8.562;2024-01-15T12:36:57;99292.97;;;1.69;82.86
62333;BME280;48624;49.812;8.562;2024-01-15T12:39:22;99298.09;;;1.52;83.47
62333;BME280;48624;49.812;8.562;2024-01-15T12:41:48;99292.03;;;1.70;83.10
62333;BME280;48624;49.812;8.562;2024-01-15T12:44:13;99295.84;;;1.45;83.88
62333;BME280;48624;49.812;8.562;2024-01-15T12:46:38;99294.72;;;1.68;83.81
62333;BME280;48624;49.812;8.562;2024-01-15T12:49:04;99293.03;;;1.85;82.05
62333;BME280;48624;49.812;8.562;2024-01-15T12:51:29;99288.00;;;1.45;83.63
62333;BME280;48624;49.812;8.562;2024-01-15T12:53:55;99294.91;;;1.46;84.91
62333;BME280;48624;49.812;8.562;2024-01-15T12:56:20;99292.66;;;1.57;84.17
62333;BME280;48624;49.812;8.562;2024-01-15T12:58:45;99292.09;;;1.86;82.70
62333;BME280;48624;49.812;8.562;2024-01-15T13:01:11;99293.56;;;1.74;82.24
62333;BME280;48624;49.812;8.562;2024-01-15T13:03:36;99285.34;;;1.82;82.57
62333;BME280;48624;49.812;8.562;2024-01-15T13:06:01;99293.41;;;1.94;81.44
62333;BME280;48624;49.812;8.562;2024-01-15T13:08:26;99285.13;;;1.86;81.12
62333;BME280;48624;49.812;8.562;2024-01-15T13:10:54;99284.56;;;1.79;80.50
62333;BME280;48624;49.812;8.562;2024-01-15T13:13:22;99284.66;;;1.78;81.04
62333;BME280;48624;49.812;8.562;2024-01-15T13:15:47;99300.22;;;1.97;79.66